Time;durP1;ratioP1;P1;durP2;ratioP2;P2;SDS_P1;SDS_P2;PMS_P1;PMS_P2;Temp;Humidity;BMP_temperature;BMP_pressure;BME280_temperature;BME280_humidity;BME280_pressure;Samples;Min_cycle;Max_cycle;Signal;HPM_P1;HPM_P2
2020/12/07 00:01:55;;;;;;;49.33;25.83;;;;;;;4.10;100.00;98687.50;5034234;28;20057;-65
2020/12/07 00:04:39;;;;;;;46.75;26.20;;;;;;;4.13;100.00;98695.13;5035427;28;20064;-65
2020/12/07 00:07:25;;;;;;;45.33;23.15;;;;;;;4.06;100.00;98683.50;5034055;28;20128;-65
2020/12/07 00:10:09;;;;;;;51.33;25.42;;;;;;;4.07;100.00;98667.50;5033837;28;20075;-66
2020/12/07 00:12:53;;;;;;;47.67;25.75;;;;;;;3.99;100.00;98648.13;5034081;28;20103;-66
2020/12/07 00:15:37;;;;;;;47.35;25.30;;;;;;;4.00;100.00;98645.34;5034076;28;20520;-65
2020/12/07 00:18:22;;;;;;;47.60;24.25;;;;;;;3.95;100.00;98657.28;5005953;28;20051;-65
2020/12/07 00:21:09;;;;;;;49.92;25.25;;;;;;;3.96;100.00;98672.13;5033691;28;20090;-65
2020/12/07 00:23:53;;;;;;;47.03;25.08;;;;;;;3.97;100.00;98679.06;5034838;28;20064;-65
2020/12/07 00:26:37;;;;;;;48.05;24.33;;;;;;;3.93;100.00;98682.94;5033534;28;20477;-65
2020/12/07 00:29:22;;;;;;;46.90;24.75;;;;;;;3.93;100.00;98680.31;5034385;28;20044;-65
2020/12/07 00:32:06;;;;;;;44.13;23.67;;;;;;;3.90;100.00;98680.59;5034673;28;20071;-68
2020/12/07 00:34:51;;;;;;;43.17;23.45;;;;;;;3.87;100.00;98691.44;5033671;28;20516;-65
2020/12/07 00:37:35;;;;;;;43.50;23.48;;;;;;;3.84;100.00;98679.34;5033245;28;20056;-65
2020/12/07 00:40:19;;;;;;;46.47;23.27;;;;;;;3.83;100.00;98684.75;5033367;28;20452;-65
2020/12/07 00:43:03;;;;;;;46.92;22.70;;;;;;;3.84;100.00;98689.09;5034454;28;20052;-65
2020/12/07 00:45:47;;;;;;;41.88;22.60;;;;;;;3.82;100.00;98685.72;5034180;28;20056;-65
2020/12/07 00:48:30;;;;;;;49.95;22.58;;;;;;;3.82;100.00;98680.47;5034068;28;20460;-65
2020/12/07 00:51:18;;;;;;;44.53;23.85;;;;;;;3.77;100.00;98678.25;5034328;28;20056;-65
2020/12/07 00:54:02;;;;;;;48.05;23.42;;;;;;;3.77;100.00;98678.25;5034258;28;20119;-65
2020/12/07 00:56:46;;;;;;;43.40;22.30;;;;;;;3.77;100.00;98680.88;5033225;28;20074;-65
2020/12/07 00:59:29;;;;;;;51.50;25.33;;;;;;;3.72;100.00;98677.00;5032290;28;20052;-65
2020/12/07 01:02:13;;;;;;;47.38;23.85;;;;;;;3.73;100.00;98671.59;5032744;28;20521;-65
2020/12/07 01:04:58;;;;;;;40.17;22.98;;;;;;;3.69;100.00;98682.56;5034044;28;20140;-65
2020/12/07 01:07:41;;;;;;;50.70;24.85;;;;;;;3.69;100.00;98669.38;5032843;28;20048;-65
2020/12/07 01:10:25;;;;;;;48.10;23.80;;;;;;;3.67;100.00;98666.06;5032655;28;20044;-65
2020/12/07 01:13:09;;;;;;;50.33;25.70;;;;;;;3.68;100.00;98673.00;5033929;28;20172;-65
2020/12/07 01:15:53;;;;;;;51.20;24.92;;;;;;;3.68;100.00;98687.00;5033750;28;20052;-65
2020/12/07 01:18:37;;;;;;;41.88;20.45;;;;;;;3.70;100.00;98698.25;5018711;28;20056;-65
2020/12/07 01:21:21;;;;;;;48.47;24.80;;;;;;;3.73;100.00;98676.03;5033809;28;20509;-65
2020/12/07 01:24:05;;;;;;;46.28;23.85;;;;;;;3.76;100.00;98675.75;5018526;28;20052;-65
2020/12/07 01:26:49;;;;;;;47.20;23.77;;;;;;;3.76;100.00;98660.78;5033724;28;20048;-65
2020/12/07 01:29:34;;;;;;;46.47;22.70;;;;;;;3.77;100.00;98667.69;5033330;28;20048;-65
2020/12/07 01:32:18;;;;;;;40.55;19.73;;;;;;;3.80;100.00;98677.97;5033614;28;20044;-65
2020/12/07 01:35:02;;;;;;;45.63;23.42;;;;;;;3.83;100.00;98676.84;5033597;28;20056;-65
2020/12/07 01:37:46;;;;;;;46.38;20.88;;;;;;;3.84;100.00;98687.25;5033392;28;20513;-65
2020/12/07 01:40:30;;;;;;;38.72;18.73;;;;;;;3.87;100.00;98688.78;5032135;28;20044;-65
2020/12/07 01:43:14;;;;;;;45.70;22.48;;;;;;;3.90;100.00;98699.03;5018274;28;20131;-65
2020/12/07 01:45:59;;;;;;;37.17;16.77;;;;;;;3.94;100.00;98701.25;5033190;28;20060;-65
2020/12/07 01:48:43;;;;;;;45.40;20.50;;;;;;;3.95;100.00;98702.09;5033074;28;20064;-65
2020/12/07 01:51:27;;;;;;;42.92;21.95;;;;;;;3.97;100.00;98694.88;5032397;28;20075;-65
2020/12/07 01:54:12;;;;;;;39.35;20.48;;;;;;;3.99;100.00;98698.22;5033332;28;20099;-65
2020/12/07 01:56:57;;;;;;;40.88;21.30;;;;;;;4.04;100.00;98690.72;5033586;28;20102;-65
2020/12/07 01:59:40;;;;;;;37.70;19.27;;;;;;;4.01;100.00;98696.25;5031865;28;20052;-65
2020/12/07 02:02:24;;;;;;;37.17;20.17;;;;;;;4.06;100.00;98688.78;5032018;28;20076;-65
2020/12/07 02:05:08;;;;;;;41.40;21.15;;;;;;;4.07;100.00;98701.78;5033282;28;20048;-65
2020/12/07 02:08:11;;;;;;;37.55;20.30;;;;;;;4.07;100.00;98712.34;5032978;28;20053;-65
2020/12/07 02:10:56;;;;;;;43.65;20.58;;;;;;;4.15;100.00;98730.13;5031924;28;20048;-65
2020/12/07 02:13:40;;;;;;;41.00;21.42;;;;;;;4.14;100.00;98728.41;5037250;28;20056;-65
2020/12/07 02:16:24;;;;;;;42.50;21.92;;;;;;;4.17;100.00;98725.53;5036254;28;20213;-65
2020/12/07 02:19:08;;;;;;;44.65;22.52;;;;;;;4.17;100.00;98722.88;5036045;28;20186;-65
2020/12/07 02:21:52;;;;;;;43.53;23.42;;;;;;;4.17;100.00;98712.34;5036838;28;20056;-65
2020/12/07 02:24:36;;;;;;;48.83;23.05;;;;;;;4.25;100.00;98699.28;5036776;28;20056;-65
2020/12/07 02:27:20;;;;;;;49.72;25.65;;;;;;;4.22;100.00;98694.25;5036790;28;20095;-65
2020/12/07 02:30:04;;;;;;;48.42;21.00;;;;;;;4.26;100.00;98685.13;5036736;28;20060;-65
2020/12/07 02:32:49;;;;;;;45.83;23.65;;;;;;;4.26;100.00;98678.00;5035684;28;20053;-65
2020/12/07 02:35:33;;;;;;;49.97;26.00;;;;;;;4.25;100.00;98683.44;5036146;28;20048;-65
2020/12/07 02:38:18;;;;;;;48.10;25.30;;;;;;;4.25;100.00;98684.28;5036527;28;20091;-65
2020/12/07 02:41:02;;;;;;;50.72;26.75;;;;;;;4.23;100.00;98702.03;5036673;28;20128;-65
2020/12/07 02:43:47;;;;;;;46.67;21.88;;;;;;;4.24;100.00;98713.41;5036697;28;20584;-65
2020/12/07 02:46:31;;;;;;;37.00;19.02;;;;;;;4.30;100.00;98715.50;5036397;28;20052;-65
2020/12/07 02:49:15;;;;;;;50.25;26.40;;;;;;;4.32;100.00;98714.38;5036492;28;20501;-65
2020/12/07 02:51:59;;;;;;;49.55;25.25;;;;;;;4.32;100.00;98713.53;5035569;28;20052;-65
2020/12/07 02:54:43;;;;;;;48.33;24.02;;;;;;;4.33;100.00;98707.28;5035806;28;20068;-65
2020/12/07 02:57:28;;;;;;;52.25;25.13;;;;;;;4.36;100.00;98720.22;5036462;28;20095;-65
2020/12/07 03:00:12;;;;;;;52.22;23.48;;;;;;;4.34;100.00;98714.22;5035962;28;20086;-66
2020/12/07 03:02:56;;;;;;;49.17;25.25;;;;;;;4.33;100.00;98702.84;5035376;28;20441;-65
2020/12/07 03:05:40;;;;;;;45.75;20.48;;;;;;;4.35;100.00;98715.91;5035384;28;20049;-65
2020/12/07 03:08:24;;;;;;;50.38;25.67;;;;;;;4.32;100.00;98714.38;5036036;28;20048;-65
2020/12/07 03:11:07;;;;;;;49.42;25.77;;;;;;;4.35;100.00;98724.66;5036229;28;20406;-65
2020/12/07 03:13:51;;;;;;;51.85;24.92;;;;;;;4.39;100.00;98728.66;5036188;28;20099;-66
2020/12/07 03:16:36;;;;;;;48.08;24.73;;;;;;;4.38;100.00;98731.44;5035110;28;20103;-65
2020/12/07 03:19:20;;;;;;;44.85;23.13;;;;;;;4.40;100.00;98727.69;5035954;28;20052;-65
2020/12/07 03:22:04;;;;;;;39.53;20.45;;;;;;;4.45;100.00;98737.81;5035719;28;20137;-65
2020/12/07 03:24:49;;;;;;;40.92;19.15;;;;;;;4.46;100.00;98735.03;5035233;28;20048;-66
2020/12/07 03:27:33;;;;;;;41.33;21.15;;;;;;;4.44;100.00;98728.22;5035926;28;20064;-65
2020/12/07 03:30:16;;;;;;;35.53;19.17;;;;;;;4.40;100.00;98724.22;5020529;28;20090;-65
2020/12/07 03:33:00;;;;;;;36.13;18.88;;;;;;;4.40;100.00;98730.34;5035534;28;20473;-65
2020/12/07 03:35:44;;;;;;;34.45;16.50;;;;;;;4.39;100.00;98739.19;5034803;28;20060;-65
2020/12/07 03:38:28;;;;;;;29.75;16.20;;;;;;;4.40;100.00;98729.50;5035445;28;20103;-65
2020/12/07 03:41:12;;;;;;;;;;;;;;;4.44;100.00;98731.69;5036335;28;20040;-66
2020/12/07 03:43:56;;;;;;;31.10;15.60;;;;;;;4.47;100.00;98741.16;5035566;28;20013;-65
2020/12/07 03:46:40;;;;;;;;;;;;;;;4.43;100.00;98727.41;5035708;28;20548;-66
2020/12/07 03:49:24;;;;;;;30.13;15.68;;;;;;;4.48;100.00;98742.81;5035474;28;20008;-65
2020/12/07 03:52:08;;;;;;;37.10;18.55;;;;;;;4.50;100.00;98738.22;5035435;28;20048;-65
2020/12/07 03:54:52;;;;;;;38.65;19.80;;;;;;;4.49;100.00;98742.66;5034432;28;20103;-65
2020/12/07 03:57:36;;;;;;;38.15;20.48;;;;;;;4.50;100.00;98735.56;5035078;28;20050;-65
2020/12/07 04:00:20;;;;;;;41.78;22.27;;;;;;;4.52;100.00;98738.91;5033896;28;20048;-65
2020/12/07 04:03:07;;;;;;;42.35;22.45;;;;;;;4.50;100.00;98739.06;5035063;28;20099;-66
2020/12/07 04:08:41;;;;;;;46.30;24.20;;;;;;;4.49;100.00;98749.75;5035338;28;20052;-66
2020/12/07 04:11:25;;;;;;;49.80;25.70;;;;;;;4.52;100.00;98752.94;5034852;28;20468;-65
2020/12/07 04:14:09;;;;;;;46.15;26.02;;;;;;;4.54;100.00;98739.59;5034038;28;20098;-66
2020/12/07 04:16:53;;;;;;;44.13;23.98;;;;;;;4.55;100.00;98750.00;5035011;28;20126;-65
2020/12/07 04:19:37;;;;;;;28.83;14.45;;;;;;;4.56;100.00;98758.75;5033546;28;20087;-66
2020/12/07 04:22:21;;;;;;;37.03;17.67;;;;;;;4.53;100.00;98762.50;5033654;28;20056;-66
2020/12/07 04:25:05;;;;;;;43.90;24.92;;;;;;;4.57;100.00;98763.88;5034826;28;20068;-65
2020/12/07 04:27:50;;;;;;;47.20;25.95;;;;;;;4.58;100.00;98767.38;5034520;28;20052;-65
2020/12/07 04:30:38;;;;;;;44.55;24.45;;;;;;;4.58;100.00;98768.19;5034459;28;20154;-65
2020/12/07 04:33:21;;;;;;;46.08;24.95;;;;;;;4.61;100.00;98769.72;5033430;28;20521;-65
2020/12/07 04:36:05;;;;;;;40.28;24.60;;;;;;;4.62;100.00;98766.09;5019391;28;20091;-65
2020/12/07 04:38:50;;;;;;;45.22;24.95;;;;;;;4.62;100.00;98774.00;5034180;28;20048;-65
2020/12/07 04:41:33;;;;;;;43.60;24.77;;;;;;;4.63;100.00;98773.03;5034235;28;20049;-65
2020/12/07 04:44:18;;;;;;;43.63;23.67;;;;;;;4.60;100.00;98770.69;5034463;28;20547;-65
2020/12/07 04:47:02;;;;;;;37.80;21.75;;;;;;;4.62;100.00;98781.94;5033132;28;20049;-65
2020/12/07 04:49:46;;;;;;;41.47;23.50;;;;;;;4.63;100.00;98773.03;5033075;28;20041;-66
2020/12/07 04:52:30;;;;;;;;;;;;;;;4.60;100.00;98773.31;5034544;28;20067;-65
2020/12/07 04:55:15;;;;;;;38.33;22.17;;;;;;;4.64;100.00;98772.06;5033221;28;19924;-65
2020/12/07 04:57:59;;;;;;;41.38;23.33;;;;;;;4.64;100.00;98785.25;5034125;28;20462;-66
2020/12/07 05:00:44;;;;;;;40.90;23.45;;;;;;;4.64;100.00;98785.25;5020273;28;20047;-66
2020/12/07 05:03:27;;;;;;;35.38;21.10;;;;;;;4.65;100.00;98782.47;5033076;28;20057;-66
2020/12/07 05:06:14;;;;;;;38.50;23.42;;;;;;;4.66;100.00;98791.25;5033091;28;20056;-65
2020/12/07 05:08:58;;;;;;;38.00;22.02;;;;;;;4.70;100.00;98789.97;5033620;28;20103;-66
2020/12/07 05:11:42;;;;;;;38.83;22.25;;;;;;;4.70;100.00;98800.53;5033305;28;20132;-66
2020/12/07 05:14:26;;;;;;;28.50;16.48;;;;;;;4.70;100.00;98806.63;5033818;28;20480;-65
2020/12/07 05:17:14;;;;;;;40.15;23.02;;;;;;;4.68;100.00;98807.75;5032882;28;20187;-65
2020/12/07 05:19:58;;;;;;;40.65;23.10;;;;;;;4.67;100.00;98800.81;5032698;28;20040;-65
2020/12/07 05:22:42;;;;;;;42.47;22.20;;;;;;;4.68;100.00;98802.47;5018791;28;20111;-65
2020/12/07 05:25:27;;;;;;;40.47;23.52;;;;;;;4.69;100.00;98804.13;5018822;28;20052;-65
2020/12/07 05:28:13;;;;;;;32.78;18.58;;;;;;;4.71;100.00;98802.19;5032548;28;20056;-65
2020/12/07 05:30:58;;;;;;;38.55;23.73;;;;;;;4.72;100.00;98812.63;5033532;28;20043;-65
2020/12/07 05:33:42;;;;;;;36.53;21.63;;;;;;;4.68;100.00;98808.56;5033593;28;20047;-65
2020/12/07 05:36:26;;;;;;;39.85;23.55;;;;;;;4.63;100.00;98813.47;5032505;28;20508;-65
2020/12/07 05:39:11;;;;;;;38.25;23.35;;;;;;;4.65;100.00;98808.03;5033183;28;20041;-66
2020/12/07 05:41:55;;;;;;;41.05;23.27;;;;;;;4.70;100.00;98813.72;5018653;28;20060;-65
2020/12/07 05:44:39;;;;;;;44.45;23.23;;;;;;;4.70;100.00;98805.81;5033556;28;20052;-65
2020/12/07 05:47:25;;;;;;;40.25;22.60;;;;;;;4.67;100.00;98811.38;5032923;28;20115;-65
2020/12/07 05:50:10;;;;;;;38.15;22.40;;;;;;;4.66;100.00;98818.44;5032121;28;20048;-65
2020/12/07 05:52:58;;;;;;;39.22;20.17;;;;;;;4.71;100.00;98818.03;5032219;28;20052;-65
2020/12/07 05:55:42;;;;;;;38.50;23.13;;;;;;;4.66;100.00;98820.28;5032170;28;20051;-64
2020/12/07 05:58:28;;;;;;;44.33;23.45;;;;;;;4.70;100.00;98822.47;5033060;28;20167;-65
2020/12/07 06:01:16;;;;;;;43.05;23.55;;;;;;;4.67;100.00;98821.94;5032229;28;20194;-65
2020/12/07 06:04:00;;;;;;;38.50;21.67;;;;;;;4.70;100.00;98834.84;5032318;28;20461;-66
2020/12/07 06:06:47;;;;;;;40.17;23.58;;;;;;;4.70;100.00;98824.28;5018351;28;20104;-65
2020/12/07 06:09:31;;;;;;;41.78;24.00;;;;;;;4.73;100.00;98831.91;5032900;28;20052;-65
2020/12/07 06:12:21;;;;;;;38.95;23.63;;;;;;;4.72;100.00;98831.09;5032946;28;20140;-65
2020/12/07 06:15:06;;;;;;;44.67;24.75;;;;;;;4.73;100.00;98827.47;5018331;28;20103;-66
2020/12/07 06:17:50;;;;;;;42.08;22.10;;;;;;;4.75;100.00;98828.16;5032855;28;20068;-66
2020/12/07 06:20:37;;;;;;;41.83;20.73;;;;;;;4.76;100.00;98840.38;5032798;28;20041;-66
2020/12/07 06:23:34;;;;;;;43.75;24.58;;;;;;;4.74;100.00;98833.56;5031888;28;20067;-65
2020/12/07 06:26:19;;;;;;;47.83;24.15;;;;;;;4.73;100.00;98848.59;5032069;28;20156;-65
2020/12/07 06:29:03;;;;;;;44.90;24.02;;;;;;;4.76;100.00;98836.91;5031977;28;20049;-65
2020/12/07 06:31:49;;;;;;;45.22;24.17;;;;;;;4.73;100.00;98827.47;5032738;28;20196;-65
2020/12/07 06:34:42;;;;;;;44.05;24.90;;;;;;;4.69;100.00;98836.63;5032325;28;20501;-66
2020/12/07 06:37:26;;;;;;;45.67;24.85;;;;;;;4.70;100.00;98837.47;5032954;28;20049;-65
2020/12/07 06:40:10;;;;;;;49.75;25.40;;;;;;;4.69;100.00;98838.44;5017594;28;20049;-66
2020/12/07 06:42:54;;;;;;;47.10;25.42;;;;;;;4.72;100.00;98846.09;5032921;28;20136;-66
2020/12/07 06:45:38;;;;;;;42.65;24.42;;;;;;;4.71;100.00;98847.91;5031585;28;20072;-65
2020/12/07 06:48:24;;;;;;;44.83;24.92;;;;;;;4.74;100.00;98849.41;5032590;28;20053;-66
2020/12/07 06:51:31;;;;;;;44.95;24.42;;;;;;;4.73;100.00;98853.03;5031860;28;20067;-66
2020/12/07 06:57:23;;;;;;;42.55;24.73;;;;;;;4.81;100.00;98866.34;5031865;28;20064;-65
2020/12/07 07:00:11;;;;;;;43.40;25.50;;;;;;;4.76;100.00;98869.41;5035546;28;20044;-66
2020/12/07 07:02:57;;;;;;;42.58;24.83;;;;;;;4.76;100.00;98869.41;5036026;28;20548;-66
2020/12/07 07:05:41;;;;;;;46.75;23.80;;;;;;;4.82;100.00;98883.84;5021447;28;20071;-65
2020/12/07 07:08:25;;;;;;;;;;;;;;;4.82;100.00;98889.13;5036410;28;20533;-65
2020/12/07 07:11:09;;;;;;;42.53;24.13;;;;;;;4.83;100.00;98888.16;5035961;28;20381;-65
2020/12/07 07:13:53;;;;;;;47.97;27.15;;;;;;;4.76;100.00;98889.72;5036189;28;20091;-66
2020/12/07 07:16:37;;;;;;;50.40;26.45;;;;;;;4.75;100.00;98886.22;5035278;28;20476;-66
2020/12/07 07:19:22;;;;;;;50.40;26.15;;;;;;;4.75;100.00;98899.44;5035967;28;20064;-66
2020/12/07 07:22:06;;;;;;;51.28;28.58;;;;;;;4.69;100.00;98893.88;5035304;28;20056;-65
2020/12/07 07:28:14;;;;;;;50.25;28.17;;;;;;;4.67;100.00;98903.75;5035212;28;20052;-66
2020/12/07 07:31:03;;;;;;;50.35;28.10;;;;;;;4.74;100.00;98907.47;5034944;28;20175;-66
2020/12/07 07:33:48;;;;;;;51.13;27.83;;;;;;;4.75;100.00;98920.53;5035761;28;20129;-66
2020/12/07 07:36:32;;;;;;;50.33;26.23;;;;;;;4.76;100.00;98919.56;5034497;28;20044;-66
2020/12/07 07:39:16;;;;;;;50.38;28.17;;;;;;;4.79;100.00;98923.75;5035326;28;20087;-65
2020/12/07 07:42:15;;;;;;;47.83;27.50;;;;;;;4.77;100.00;98928.34;5035424;28;20141;-65
2020/12/07 07:44:59;;;;;;;55.08;26.27;;;;;;;4.76;100.00;98930.13;5034868;28;20052;-65
2020/12/07 07:47:53;;;;;;;56.05;28.92;;;;;;;4.76;100.00;98938.03;5034348;28;20048;-66
2020/12/07 08:03:24;;;;;;;47.60;23.42;;;;;;;4.91;100.00;98931.38;5035275;28;20103;-66
2020/12/07 08:17:55;;;;;;;51.33;27.27;;;;;;;5.23;100.00;98943.25;5034575;28;20461;-65
2020/12/07 08:20:53;;;;;;;46.25;25.90;;;;;;;5.26;100.00;98960.63;5033596;28;20052;-66
2020/12/07 08:23:38;;;;;;;47.58;24.85;;;;;;;5.23;100.00;98964.38;5033662;28;20052;-65
2020/12/07 08:26:24;;;;;;;51.05;28.35;;;;;;;5.16;100.00;98968.59;5034511;28;20413;-65
2020/12/07 08:29:08;;;;;;;47.47;25.90;;;;;;;5.11;100.00;98977.91;5034656;28;20517;-65
2020/12/07 08:31:52;;;;;;;51.72;27.80;;;;;;;5.09;100.00;98970.13;5033724;28;20049;-65
2020/12/07 08:34:36;;;;;;;50.33;27.65;;;;;;;5.16;100.00;98975.66;5033320;28;20052;-66
2020/12/07 08:37:20;;;;;;;48.45;26.33;;;;;;;5.25;100.00;98967.72;5034479;28;20103;-66
2020/12/07 08:40:04;;;;;;;53.55;24.60;;;;;;;5.27;100.00;98976.34;5034415;28;20128;-66
2020/12/07 08:42:48;;;;;;;47.85;26.00;;;;;;;5.38;100.00;98981.47;5033353;28;20478;-65
2020/12/07 08:45:32;;;;;;;48.13;26.45;;;;;;;5.35;100.00;98984.38;5033210;28;20132;-65
2020/12/07 08:48:16;;;;;;;44.95;25.58;;;;;;;5.34;100.00;98981.91;5034093;28;20413;-65
2020/12/07 08:51:00;;;;;;;46.83;25.73;;;;;;;5.31;100.00;98987.44;5034306;28;20044;-66
2020/12/07 08:53:44;;;;;;;44.03;24.10;;;;;;;5.32;100.00;98992.59;5033025;28;20048;-66
2020/12/07 08:56:28;;;;;;;49.28;27.33;;;;;;;5.23;100.00;98993.44;5034162;28;20107;-66
2020/12/07 08:59:12;;;;;;;43.92;25.70;;;;;;;5.24;100.00;98992.47;5032837;28;20136;-65
2020/12/07 09:01:56;;;;;;;46.72;25.90;;;;;;;5.31;100.00;98998.88;5032818;28;20056;-66
2020/12/07 09:04:39;;;;;;;46.70;25.08;;;;;;;5.38;100.00;98993.84;5033816;28;20050;-66
2020/12/07 09:07:24;;;;;;;45.83;24.98;;;;;;;5.52;100.00;98996.06;5032789;28;20096;-66
2020/12/07 09:10:09;;;;;;;42.53;24.27;;;;;;;5.55;100.00;98986.00;5033888;28;20052;-65
2020/12/07 09:12:53;;;;;;;44.08;25.08;;;;;;;5.56;100.00;98987.66;5033852;28;20052;-66
2020/12/07 09:15:37;;;;;;;39.88;24.40;;;;;;;5.55;100.00;98996.56;5032620;28;20079;-65
2020/12/07 09:18:21;;;;;;;47.92;24.83;;;;;;;5.48;100.00;99000.78;5033539;28;20103;-66
2020/12/07 09:21:07;;;;;;;43.08;24.20;;;;;;;5.47;100.00;99009.69;5032004;28;20080;-66
2020/12/07 09:23:51;;;;;;;43.17;24.20;;;;;;;5.60;100.00;98999.63;5032768;28;20055;-65
2020/12/07 09:26:35;;;;;;;46.42;24.23;;;;;;;5.54;100.00;99000.19;5018474;28;20051;-65
2020/12/07 09:29:19;;;;;;;42.03;24.40;;;;;;;5.55;100.00;99007.16;5033511;28;20414;-66
2020/12/07 09:32:03;;;;;;;42.80;23.25;;;;;;;5.66;100.00;99011.44;5033361;28;20628;-66
2020/12/07 09:34:47;;;;;;;39.67;24.50;;;;;;;5.66;100.00;99009.63;5033619;28;20072;-66
2020/12/07 09:37:31;;;;;;;37.42;22.55;;;;;;;5.74;100.00;99012.38;5033559;28;20056;-66
2020/12/07 09:40:16;;;;;;;41.00;23.65;;;;;;;5.72;99.87;99009.06;5033211;28;20099;-66
2020/12/07 09:43:01;;;;;;;35.05;21.63;;;;;;;5.79;99.24;99012.84;5032452;28;20143;-66
2020/12/07 09:45:45;;;;;;;35.83;22.27;;;;;;;5.87;99.03;99002.34;5018391;28;20108;-66
2020/12/07 09:48:29;;;;;;;41.60;23.98;;;;;;;5.98;99.65;98999.53;5032203;28;20048;-66
2020/12/07 09:51:14;;;;;;;35.53;22.48;;;;;;;6.00;97.74;98997.56;5032464;28;20500;-65
2020/12/07 09:53:58;;;;;;;34.42;20.67;;;;;;;6.03;97.55;99007.84;5033105;28;20048;-66
2020/12/07 09:56:42;;;;;;;36.28;19.60;;;;;;;6.01;96.36;99001.88;5032424;28;20044;-65
2020/12/07 09:59:26;;;;;;;34.78;21.02;;;;;;;6.15;97.36;99001.38;5018092;28;20092;-65
2020/12/07 10:02:11;;;;;;;33.55;19.60;;;;;;;6.47;96.16;98998.28;5032292;28;20102;-66
2020/12/07 10:04:54;;;;;;;27.65;17.92;;;;;;;6.59;93.41;98990.00;5032280;28;20505;-66
2020/12/07 10:07:38;;;;;;;28.77;17.35;;;;;;;6.62;90.98;98994.97;5032080;28;20135;-65
2020/12/07 10:10:23;;;;;;;28.30;17.83;;;;;;;6.57;91.88;98994.56;5032444;28;20048;-65
2020/12/07 10:13:07;;;;;;;26.30;16.10;;;;;;;6.67;88.76;98992.69;5031998;28;20079;-66
2020/12/07 10:15:50;;;;;;;21.65;12.13;;;;;;;6.56;89.03;98998.22;5032051;28;20051;-65
2020/12/07 10:18:34;;;;;;;27.25;16.77;;;;;;;6.47;90.36;99000.94;5033152;28;20103;-65
2020/12/07 10:21:26;;;;;;;26.85;15.27;;;;;;;6.46;90.44;99000.09;5031750;28;20076;-66
2020/12/07 10:24:10;;;;;;;25.33;15.68;;;;;;;6.53;89.95;99000.31;5017848;28;20056;-66
2020/12/07 10:26:54;;;;;;;23.27;15.45;;;;;;;6.63;90.46;98998.44;5033130;28;20107;-66
2020/12/07 10:29:38;;;;;;;22.63;15.32;;;;;;;6.60;89.11;99001.41;5032117;28;20044;-66
2020/12/07 10:32:22;;;;;;;23.05;13.90;;;;;;;6.61;89.84;99003.06;5033764;28;20056;-65
2020/12/07 10:35:06;;;;;;;22.92;13.73;;;;;;;6.50;87.89;99001.47;5036140;28;20056;-65
2020/12/07 10:37:50;;;;;;;23.25;13.35;;;;;;;6.43;89.21;99005.69;5036821;28;20548;-66
2020/12/07 10:40:34;;;;;;;23.67;14.68;;;;;;;6.37;89.07;99000.16;5035530;28;20048;-65
2020/12/07 10:43:18;;;;;;;19.33;12.25;;;;;;;6.34;87.64;98998.63;5035665;28;20414;-65
2020/12/07 10:46:03;;;;;;;20.02;13.57;;;;;;;6.32;86.63;99008.53;5036777;28;20048;-66
2020/12/07 10:48:47;;;;;;;22.85;13.27;;;;;;;6.29;86.74;99003.56;5035504;28;20421;-66
2020/12/07 10:51:31;;;;;;;22.17;13.75;;;;;;;6.22;86.85;99012.22;5035683;28;20044;-66
2020/12/07 10:54:15;;;;;;;21.40;12.88;;;;;;;6.20;86.76;99017.66;5036282;28;20103;-66
2020/12/07 10:56:59;;;;;;;20.73;13.60;;;;;;;6.22;88.74;99012.22;5035482;28;20048;-65
2020/12/07 10:59:44;;;;;;;21.58;12.00;;;;;;;6.16;86.46;99013.63;5036110;28;20053;-66
2020/12/07 11:02:28;;;;;;;23.23;10.75;;;;;;;6.12;85.86;99012.25;5035419;28;20084;-65
2020/12/07 11:05:13;;;;;;;21.13;12.60;;;;;;;6.04;86.90;99008.69;5035392;28;20047;-66
2020/12/07 11:07:56;;;;;;;19.90;12.85;;;;;;;6.09;87.79;99012.56;5035229;28;20130;-66
2020/12/07 11:10:40;;;;;;;21.33;13.32;;;;;;;5.98;87.30;99007.47;5034956;28;20524;-66
2020/12/07 11:13:29;;;;;;;18.58;13.07;;;;;;;6.09;87.95;99011.72;5037733;28;20410;-66
2020/12/07 11:16:13;;;;;;;20.10;12.98;;;;;;;6.20;86.00;99011.53;5036107;28;20114;-66
2020/12/07 11:18:57;;;;;;;20.85;12.90;;;;;;;6.22;87.54;99005.13;5035048;28;20471;-66
2020/12/07 11:21:44;;;;;;;20.63;13.40;;;;;;;6.33;86.96;99007.56;5036081;28;20402;-66
2020/12/07 11:24:28;;;;;;;20.27;12.68;;;;;;;6.34;85.55;99005.75;5034646;28;20056;-66
2020/12/07 11:27:11;;;;;;;19.60;12.20;;;;;;;6.46;85.45;98999.28;5035841;28;20044;-67
2020/12/07 11:29:55;;;;;;;20.92;12.23;;;;;;;6.42;85.52;98997.88;5034816;28;20505;-66
2020/12/07 11:32:39;;;;;;;19.90;12.50;;;;;;;6.55;84.56;98995.72;5034586;28;20048;-66
2020/12/07 11:35:24;;;;;;;18.73;11.38;;;;;;;6.68;85.17;99002.31;5035830;28;20052;-66
2020/12/07 11:38:17;;;;;;;18.05;11.50;;;;;;;6.76;82.14;99007.69;5034534;28;20441;-66
2020/12/07 11:44:09;;;;;;;18.67;12.27;;;;;;;7.12;82.79;99004.06;5034939;28;20052;-66
2020/12/07 11:46:55;;;;;;;19.08;12.07;;;;;;;7.50;80.58;99003.66;5034622;28;20448;-66
2020/12/07 11:49:40;;;;;;;18.75;12.32;;;;;;;7.76;80.39;99005.31;5034393;28;20049;-66
2020/12/07 11:52:24;;;;;;;19.38;12.38;;;;;;;7.76;78.08;99007.97;5020507;28;20063;-66
2020/12/07 11:55:08;;;;;;;21.50;12.25;;;;;;;7.62;78.60;99007.75;5035434;28;20528;-66
2020/12/07 11:57:52;;;;;;;18.05;12.27;;;;;;;7.63;79.55;99012.06;5034400;28;20071;-66
2020/12/07 12:00:36;;;;;;;15.60;10.38;;;;;;;7.31;78.19;99019.78;5033936;28;20549;-66
2020/12/07 12:03:20;;;;;;;20.63;11.18;;;;;;;7.22;80.19;99014.56;5035515;28;20501;-66
2020/12/07 12:06:04;;;;;;;18.77;10.48;;;;;;;7.29;78.75;99016.44;5033918;28;20087;-66
2020/12/07 12:08:49;;;;;;;16.58;10.10;;;;;;;7.42;80.12;99013.41;5034871;28;20513;-66
2020/12/07 12:11:35;;;;;;;16.80;10.95;;;;;;;7.66;78.12;99014.41;5035067;28;20040;-66
2020/12/07 12:14:18;;;;;;;17.38;10.40;;;;;;;7.89;76.42;99010.22;5034010;28;20095;-66
2020/12/07 12:17:02;;;;;;;14.80;9.43;;;;;;;9.03;71.90;99004.16;5033644;28;20052;-66
2020/12/07 12:19:47;;;;;;;14.40;9.23;;;;;;;9.09;69.76;99006.13;5034690;28;20052;-66
2020/12/07 12:22:30;;;;;;;15.00;9.73;;;;;;;9.14;69.21;99005.66;5034652;28;20088;-66
2020/12/07 12:25:15;;;;;;;13.82;8.95;;;;;;;9.69;65.83;99012.75;5033908;28;20087;-66
2020/12/07 12:27:59;;;;;;;16.02;10.10;;;;;;;10.89;64.69;99010.50;5034782;28;20051;-66
2020/12/07 12:30:43;;;;;;;15.65;9.88;;;;;;;12.28;58.99;99016.91;5033437;28;20056;-66
2020/12/07 12:33:27;;;;;;;15.50;9.55;;;;;;;11.65;57.72;99024.59;5034419;28;20061;-66
2020/12/07 12:36:14;;;;;;;17.92;11.20;;;;;;;12.00;56.73;99018.56;5034643;28;20460;-66
2020/12/07 12:38:58;;;;;;;16.20;9.75;;;;;;;12.95;55.88;99011.22;5019535;28;20119;-66
2020/12/07 12:41:42;;;;;;;15.93;11.00;;;;;;;13.96;52.61;99004.50;5033385;28;20091;-67
2020/12/07 12:44:27;;;;;;;17.73;11.05;;;;;;;14.00;50.75;99010.31;5034613;28;20441;-66
2020/12/07 12:47:10;;;;;;;19.00;11.15;;;;;;;13.16;53.04;99013.91;5033464;28;20107;-66
2020/12/07 12:49:55;;;;;;;18.40;10.68;;;;;;;12.09;56.02;99014.00;5033379;28;20045;-66
2020/12/07 12:52:39;;;;;;;17.83;11.70;;;;;;;10.55;61.67;99023.34;5033289;28;20175;-66
2020/12/07 12:55:23;;;;;;;18.25;11.63;;;;;;;10.00;64.85;99016.34;5033918;28;20053;-66
2020/12/07 12:58:07;;;;;;;16.58;11.18;;;;;;;9.59;64.31;99021.94;5033746;28;20069;-66
2020/12/07 13:00:51;;;;;;;14.98;10.63;;;;;;;9.25;65.95;99023.94;5033725;28;20123;-66
2020/12/07 13:03:35;;;;;;;18.17;11.45;;;;;;;9.03;67.93;99020.09;5033079;28;20040;-66
2020/12/07 13:06:19;;;;;;;17.48;11.40;;;;;;;9.00;68.48;99024.91;5034101;28;20565;-66
2020/12/07 13:09:04;;;;;;;17.35;11.27;;;;;;;8.78;69.07;99021.03;5019064;28;20133;-66
2020/12/07 13:11:49;;;;;;;15.95;10.82;;;;;;;8.72;68.93;99020.88;5032974;28;20116;-66
2020/12/07 13:14:33;;;;;;;19.08;12.02;;;;;;;8.67;70.47;99015.22;5032909;28;20106;-66
2020/12/07 13:17:20;;;;;;;19.15;11.50;;;;;;;8.28;70.72;99024.72;5033730;28;20521;-66